• Join FlightAware (Why Join?)
  • Login
  • US Flag 
02:25PM EDT


 

Airport Tracker/Info


-or-


 

Live Flight TrackerFlight Track Log ✈ C-GILV ✈ 20-Sep-2013 ✈ CZBF - CYHZ

Flight Track Log - Related Links

Times and Time Zones

All times are in EDT time to prevent confusion due to time zone crossing. See the C-GILV flight status page for this flight to view local times or setup timezone preferences in your user account.

Time Position Orientation Groundspeed Altitude Reporting Facility
EDT Latitude Longitude Course Direction KTS MPH feet Rate Location/Type
01:24PM 47.5333 -65.6167 150° Southeast 120 138 4,700  Level Moncton Center
01:25PM 47.5000 -65.5833 146° Southeast 130 150 5,600 900 Climbing Moncton Center
01:26PM 47.4667 -65.5667 161° South 130 150 6,600 720 Climbing Moncton Center
01:27PM 47.4333 -65.5333 146° Southeast 140 161 7,100 300 Climbing Moncton Center
01:28PM 47.2935 -65.4533 150° Southeast  Level FlightAware Approximate
01:28PM 47.3833 -65.4833 146° Southeast 170 196 7,200  Level Moncton Center
01:29PM 47.2514 -65.4178 150° Southeast  Level FlightAware Approximate
01:29PM 47.3333 -65.4667 167° South 190 219 7,100  Level Moncton Center
01:30PM 47.2094 -65.3824 150° Southeast  Level FlightAware Approximate
01:30PM 47.3000 -65.4167 135° Southeast 190 219 7,100  Level Moncton Center
01:31PM 47.2500 -65.3833 156° South 180 207 7,100  Level Moncton Center
01:32PM 47.2000 -65.3333 146° Southeast 180 207 7,100 -60 Level Moncton Center
01:33PM 47.1500 -65.3000 156° South 180 207 7,000 -60 Descending Moncton Center
01:34PM 47.1167 -65.2833 161° South 180 207 7,000  Level Moncton Center
01:35PM 47.0667 -65.2333 146° Southeast 180 207 7,000  Level Moncton Center
01:36PM 47.0167 -65.1833 146° Southeast 180 207 7,000  Level Moncton Center
01:37PM 46.9833 -65.1500 146° Southeast 180 207 7,000  Level Moncton Center
01:38PM 46.9333 -65.1000 146° Southeast 180 207 7,000  Level Moncton Center
01:39PM 46.8833 -65.0833 167° South 180 207 7,000  Level Moncton Center
01:40PM 46.8500 -65.0333 134° Southeast 180 207 7,000  Level Moncton Center
01:41PM 46.8000 -65.0000 155° Southeast 180 207 7,000  Level Moncton Center
01:42PM 46.7500 -64.9667 155° Southeast 180 207 7,000  Level Moncton Center
01:43PM 46.7167 -64.9333 146° Southeast 180 207 7,000  Level Moncton Center
01:44PM 46.6667 -64.8833 146° Southeast 190 219 7,000  Level Moncton Center
01:45PM 46.6167 -64.8667 167° South 190 219 7,000  Level Moncton Center
01:46PM 46.5833 -64.8167 134° Southeast 190 219 7,000  Level Moncton Center
01:47PM 46.5333 -64.7667 145° Southeast 190 219 7,000  Level Moncton Center
01:48PM 46.5000 -64.7333 145° Southeast 190 219 7,000  Level Moncton Center
01:49PM 46.4500 -64.6833 145° Southeast 190 219 7,000  Level Moncton Center
01:50PM 46.4000 -64.6333 145° Southeast 190 219 7,000  Level Moncton Center
01:51PM 46.3667 -64.6167 161° South 190 219 7,000  Level Moncton Center
01:52PM 46.3167 -64.5667 145° Southeast 190 219 7,000  Level Moncton Center
01:53PM 46.2833 -64.5500 161° South 180 207 7,000  Level Moncton Center
01:54PM 46.2333 -64.5000 145° Southeast 190 219 7,000  Level Moncton Center
01:55PM 46.1833 -64.4500 145° Southeast 190 219 7,000  Level Moncton Center
01:56PM 46.1500 -64.4000 134° Southeast 190 219 7,000  Level Moncton Center
01:57PM 46.1000 -64.3667 155° Southeast 180 207 7,000  Level Moncton Center
01:58PM 46.0667 -64.3167 134° Southeast 180 207 7,000  Level Moncton Center
01:59PM 46.0167 -64.2833 155° Southeast 180 207 7,000  Level Moncton Center
02:00PM 45.9833 -64.2500 145° Southeast 180 207 7,000  Level Moncton Center
02:01PM 45.9333 -64.2000 145° Southeast 180 207 7,000  Level Moncton Center
02:02PM 45.8833 -64.1500 145° Southeast 180 207 7,000  Level Moncton Center
02:03PM 45.8500 -64.1333 161° South 180 207 7,000  Level Moncton Center
02:04PM 45.8000 -64.0833 145° Southeast 180 207 7,000  Level Moncton Center
02:05PM 45.7333 -64.0667 170° South 180 207 7,000  Level Moncton Center
02:06PM 45.7000 -64.0167 134° Southeast 180 207 7,000  Level Moncton Center
02:07PM 45.6500 -63.9833 155° Southeast 180 207 7,000  Level Moncton Center
02:08PM 45.6167 -63.9500 145° Southeast 180 207 7,000  Level Moncton Center
02:09PM 45.5667 -63.9167 155° Southeast 180 207 7,000 -300 Level Moncton Center
02:10PM 45.5167 -63.8667 145° Southeast 190 219 6,500 -600 Descending Moncton Center
02:11PM 45.4667 -63.8167 145° Southeast 190 219 5,800 -780 Descending Moncton Center
02:12PM 45.4333 -63.8000 161° South 200 230 5,000 -900 Descending Moncton Center
02:13PM 45.3833 -63.7500 145° Southeast 200 230 4,000 -900 Descending Moncton Center
02:14PM 45.3333 -63.7000 145° Southeast 200 230 3,300 -660 Descending Moncton Center
02:15PM 45.2833 -63.6833 167° South 200 230 2,700 -240 Descending Moncton Center
02:16PM 45.2333 -63.6667 167° South 170 196 2,900 120 Climbing Moncton Center
02:17PM 45.2000 -63.6167 133° Southeast 170 196 3,000  Climbing Moncton Center
02:18PM 45.1500 -63.5833 155° Southeast 180 207 3,000 -420 Level Moncton Center
02:19PM 45.1167 -63.5500 145° Southeast 190 219 2,200 -600 Descending Moncton Center
02:20PM 45.0667 -63.5167 155° Southeast 190 219 1,800 -180 Descending Moncton Center
02:21PM 45.0167 -63.5167 180° South 180 207 1,900  Climbing Moncton Center
02:22PM 44.9667 -63.5000 167° South 180 207 1,800 -300 Descending Moncton Center
02:23PM 44.9167 -63.4833 167° South 180 207 1,400 -300 Descending Moncton Center
02:24PM 44.8833 -63.4500 145° Southeast 140 161 1,200 -420 Descending Moncton Center
02:25PM 44.8667 -63.4833 235° Southwest 110 127 600 -360 Descending Moncton Center
02:26PM 44.8833 -63.5000 325° Northwest 90 104 500 -120 Descending Moncton Center